createdAt,value
2023-04-09T00:01:30.796Z,10.53
2023-04-09T00:04:01.104Z,10.52
2023-04-09T00:06:31.407Z,10.50
2023-04-09T00:09:01.654Z,10.50
2023-04-09T00:11:34.315Z,10.48
2023-04-09T00:14:04.222Z,10.47
2023-04-09T00:16:34.252Z,10.44
2023-04-09T00:19:04.145Z,10.43
2023-04-09T00:21:34.131Z,10.44
2023-04-09T00:24:03.954Z,10.40
2023-04-09T00:26:37.185Z,10.28
2023-04-09T00:29:07.106Z,10.20
2023-04-09T00:31:37.320Z,10.17
2023-04-09T00:34:07.286Z,10.15
2023-04-09T00:36:37.203Z,10.14
2023-04-09T00:39:07.014Z,10.14
2023-04-09T00:41:39.884Z,10.13
2023-04-09T00:44:09.722Z,10.11
2023-04-09T00:46:40.014Z,10.07
2023-04-09T00:49:10.017Z,10.03
2023-04-09T00:51:40.255Z,9.98
2023-04-09T00:54:10.670Z,9.93
2023-04-09T00:56:44.514Z,9.92
2023-04-09T00:59:14.990Z,9.90
2023-04-09T01:01:44.929Z,9.89
2023-04-09T01:04:14.945Z,9.86
2023-04-09T01:06:52.625Z,9.83
2023-04-09T01:09:30.044Z,9.80
2023-04-09T01:12:13.447Z,9.76
2023-04-09T01:14:52.542Z,9.76
2023-04-09T01:17:27.944Z,9.73
2023-04-09T01:20:05.219Z,9.67
2023-04-09T01:22:48.244Z,9.58
2023-04-09T01:25:28.778Z,9.56
2023-04-09T01:28:19.849Z,9.54
2023-04-09T01:30:53.397Z,9.52
2023-04-09T01:33:25.043Z,9.51
2023-04-09T01:35:56.961Z,9.49
2023-04-09T01:38:28.472Z,9.47
2023-04-09T01:40:59.631Z,9.45
2023-04-09T01:43:33.449Z,9.42
2023-04-09T01:46:05.318Z,9.41
2023-04-09T01:48:36.937Z,9.38
2023-04-09T01:51:07.994Z,9.36
2023-04-09T01:53:37.802Z,9.30
2023-04-09T01:56:08.465Z,9.27
2023-04-09T01:58:41.299Z,9.24
2023-04-09T02:01:16.109Z,9.19
2023-04-09T02:03:50.375Z,9.13
2023-04-09T02:06:29.665Z,9.08
2023-04-09T02:09:04.275Z,9.06
2023-04-09T02:11:37.143Z,9.03
2023-04-09T02:14:11.500Z,9.00
2023-04-09T02:16:42.459Z,8.98
2023-04-09T02:19:12.571Z,8.95
2023-04-09T02:21:42.459Z,8.93
2023-04-09T02:24:12.349Z,8.91
2023-04-09T02:26:42.149Z,8.89
2023-04-09T02:29:14.650Z,8.88
2023-04-09T02:31:45.475Z,8.82
2023-04-09T02:34:15.509Z,8.80
2023-04-09T02:36:45.692Z,8.77
2023-04-09T02:39:15.628Z,8.73
2023-04-09T02:41:45.776Z,8.71
2023-04-09T02:44:18.263Z,8.68
2023-04-09T02:46:50.070Z,8.65
2023-04-09T02:49:20.180Z,8.62
2023-04-09T02:51:50.071Z,8.59
2023-04-09T02:54:19.930Z,8.54
2023-04-09T02:56:49.784Z,8.50
2023-04-09T02:59:22.477Z,8.49
2023-04-09T03:01:52.533Z,8.46
2023-04-09T03:04:22.542Z,8.45
2023-04-09T03:06:52.448Z,8.41
2023-04-09T03:09:22.504Z,8.39
2023-04-09T03:11:52.464Z,8.36
2023-04-09T03:14:25.022Z,8.34
2023-04-09T03:16:55.092Z,8.32
2023-04-09T03:19:25.340Z,8.30
2023-04-09T03:21:55.109Z,8.27
2023-04-09T03:24:25.022Z,8.23
2023-04-09T03:26:54.842Z,8.21
2023-04-09T03:29:27.386Z,8.16
2023-04-09T03:31:57.292Z,8.14
2023-04-09T03:34:27.608Z,8.12
2023-04-09T03:36:57.536Z,8.10
2023-04-09T03:39:31.047Z,8.08
2023-04-09T03:42:02.121Z,8.05
2023-04-09T03:44:34.637Z,8.02
2023-04-09T03:47:04.506Z,8.01
2023-04-09T03:49:34.325Z,8.00
2023-04-09T03:52:04.322Z,8.00
2023-04-09T03:54:34.738Z,8.00
2023-04-09T03:57:04.751Z,8.00
2023-04-09T03:59:37.213Z,8.00
2023-04-09T04:02:07.448Z,7.98
2023-04-09T04:04:37.586Z,7.94
2023-04-09T04:07:08.076Z,7.91
2023-04-09T04:09:37.896Z,7.87
2023-04-09T04:12:08.415Z,7.84
2023-04-09T04:14:41.446Z,7.80
2023-04-09T04:17:11.362Z,7.76
2023-04-09T04:19:41.277Z,7.70
2023-04-09T04:22:11.196Z,7.67
2023-04-09T04:24:41.096Z,7.64
2023-04-09T04:27:10.876Z,7.59
2023-04-09T04:29:43.386Z,7.57
2023-04-09T04:32:13.274Z,7.54
2023-04-09T04:34:43.168Z,7.50
2023-04-09T04:37:13.060Z,7.45
2023-04-09T04:39:42.963Z,7.42
2023-04-09T04:42:12.980Z,7.39
2023-04-09T04:44:48.178Z,7.35
2023-04-09T04:47:19.586Z,7.34
2023-04-09T04:49:49.659Z,7.30
2023-04-09T04:52:19.492Z,7.27
2023-04-09T04:54:49.379Z,7.23
2023-04-09T04:57:19.313Z,7.20
2023-04-09T04:59:51.857Z,7.17
2023-04-09T05:02:21.994Z,7.15
2023-04-09T05:04:51.880Z,7.13
2023-04-09T05:07:21.806Z,7.09
2023-04-09T05:09:51.629Z,7.06
2023-04-09T05:12:21.628Z,7.05
2023-04-09T05:14:54.138Z,7.02
2023-04-09T05:17:24.895Z,7.01
2023-04-09T05:19:55.205Z,7.00
2023-04-09T05:22:25.352Z,6.98
2023-04-09T05:24:55.231Z,6.96
2023-04-09T05:27:26.269Z,6.95
2023-04-09T05:30:00.678Z,6.94
2023-04-09T05:32:31.068Z,6.94
2023-04-09T05:35:00.945Z,6.93
2023-04-09T05:37:31.013Z,6.94
2023-04-09T05:40:00.914Z,6.95
2023-04-09T05:42:30.801Z,6.99
2023-04-09T05:45:03.412Z,7.01
2023-04-09T05:47:33.342Z,7.01
2023-04-09T05:50:03.444Z,7.01
2023-04-09T05:52:33.302Z,7.01
2023-04-09T05:55:03.814Z,7.02
2023-04-09T05:57:33.744Z,7.01
2023-04-09T06:00:06.622Z,7.01
2023-04-09T06:02:36.741Z,7.01
2023-04-09T06:05:07.005Z,7.02
2023-04-09T06:07:36.816Z,7.06
2023-04-09T06:10:07.296Z,7.11
2023-04-09T06:12:48.310Z,7.21
2023-04-09T06:15:21.806Z,7.30
2023-04-09T06:17:51.837Z,7.38
2023-04-09T06:20:21.982Z,7.45
2023-04-09T06:22:51.824Z,7.58
2023-04-09T06:25:22.235Z,7.72
2023-04-09T06:27:52.136Z,7.91
2023-04-09T06:30:24.935Z,8.08
2023-04-09T06:32:55.615Z,8.23
2023-04-09T06:35:27.247Z,8.40
2023-04-09T06:37:57.137Z,8.60
2023-04-09T06:40:33.299Z,8.79
2023-04-09T06:43:03.211Z,9.00
2023-04-09T06:45:36.140Z,9.25
2023-04-09T06:48:07.320Z,9.47
2023-04-09T06:50:37.337Z,9.73
2023-04-09T06:53:07.403Z,9.99
2023-04-09T06:55:37.348Z,10.23
2023-04-09T06:58:07.263Z,10.45
2023-04-09T07:00:39.890Z,10.69
2023-04-09T07:03:10.095Z,10.91
2023-04-09T07:05:40.065Z,11.13
2023-04-09T07:08:10.208Z,11.33
2023-04-09T07:10:40.225Z,11.49
2023-04-09T07:13:10.785Z,11.73
2023-04-09T07:15:43.719Z,11.96
2023-04-09T07:18:14.026Z,12.19
2023-04-09T07:20:44.377Z,12.32
2023-04-09T07:23:14.697Z,12.47
2023-04-09T07:25:44.617Z,12.62
2023-04-09T07:28:14.975Z,12.81
2023-04-09T07:30:47.645Z,12.93
2023-04-09T07:33:17.780Z,13.01
2023-04-09T07:35:47.927Z,13.20
2023-04-09T07:38:17.806Z,13.44
2023-04-09T07:40:47.816Z,13.53
2023-04-09T07:43:17.870Z,13.68
2023-04-09T07:45:54.095Z,13.88
2023-04-09T07:48:28.382Z,14.14
2023-04-09T07:50:58.254Z,14.25
2023-04-09T07:53:28.696Z,14.37
2023-04-09T07:55:58.784Z,14.39
2023-04-09T07:58:28.713Z,14.49
2023-04-09T08:01:01.314Z,14.51
2023-04-09T08:03:31.656Z,14.80
2023-04-09T08:06:01.931Z,15.12
2023-04-09T08:08:31.932Z,15.39
2023-04-09T08:11:01.863Z,15.30
2023-04-09T08:13:31.779Z,15.34
2023-04-09T08:16:07.108Z,15.40
2023-04-09T08:18:37.336Z,15.63
2023-04-09T08:21:08.424Z,15.82
2023-04-09T08:23:38.331Z,16.07
2023-04-09T08:26:08.641Z,16.22
2023-04-09T08:28:38.636Z,16.28
2023-04-09T08:31:12.605Z,16.24
2023-04-09T08:33:43.169Z,16.36
2023-04-09T08:36:13.157Z,16.49
2023-04-09T08:38:45.354Z,16.64
2023-04-09T08:41:21.705Z,16.86
2023-04-09T08:43:57.659Z,17.05
2023-04-09T08:46:31.661Z,17.15
2023-04-09T08:49:01.879Z,17.11
2023-04-09T08:51:32.223Z,17.17
2023-04-09T08:54:04.723Z,17.32
2023-04-09T08:56:35.380Z,17.29
2023-04-09T08:59:05.687Z,17.13
2023-04-09T09:01:38.823Z,17.16
2023-04-09T09:04:10.834Z,17.23
2023-04-09T09:06:41.931Z,17.23
2023-04-09T09:09:13.310Z,17.05
2023-04-09T09:11:44.868Z,16.88
2023-04-09T09:14:16.516Z,16.92
2023-04-09T09:17:09.143Z,16.82
2023-04-09T09:19:39.651Z,16.99
2023-04-09T09:22:12.789Z,17.07
2023-04-09T09:24:50.629Z,17.24
2023-04-09T09:27:37.307Z,17.21
2023-04-09T09:30:08.794Z,17.21
2023-04-09T09:32:42.755Z,17.38
2023-04-09T09:35:12.821Z,17.63
2023-04-09T09:37:43.135Z,17.66
2023-04-09T09:40:14.675Z,17.73
2023-04-09T09:42:58.342Z,17.51
2023-04-09T09:45:28.882Z,17.41
2023-04-09T09:48:01.943Z,17.50
2023-04-09T09:50:33.874Z,17.61
2023-04-09T09:53:07.842Z,17.52
2023-04-09T09:55:43.422Z,17.65
2023-04-09T09:58:20.388Z,17.59
2023-04-09T10:00:51.769Z,17.70
2023-04-09T10:03:29.274Z,17.99
2023-04-09T10:06:00.705Z,18.00
2023-04-09T10:08:34.341Z,18.09
2023-04-09T10:11:04.699Z,18.12
2023-04-09T10:13:38.892Z,18.23
2023-04-09T10:16:10.214Z,18.25
2023-04-09T10:18:43.939Z,18.30
2023-04-09T10:21:27.433Z,18.24
2023-04-09T10:23:58.433Z,18.47
2023-04-09T10:26:31.201Z,18.57
2023-04-09T10:29:14.768Z,18.47
2023-04-09T10:32:09.313Z,18.37
2023-04-09T10:34:44.029Z,18.45
2023-04-09T10:37:22.941Z,18.53
2023-04-09T10:39:54.683Z,18.54
2023-04-09T10:42:27.930Z,18.29
2023-04-09T10:45:20.650Z,18.40
2023-04-09T10:47:54.321Z,18.61
2023-04-09T10:50:29.541Z,18.81
2023-04-09T10:53:00.995Z,19.01
2023-04-09T10:55:36.372Z,19.24
2023-04-09T10:58:09.030Z,19.40
2023-04-09T11:00:41.506Z,19.28
2023-04-09T11:03:23.662Z,19.10
2023-04-09T11:06:01.249Z,18.77
2023-04-09T11:08:35.767Z,19.00
2023-04-09T11:11:06.156Z,19.09
2023-04-09T11:13:37.009Z,19.02
2023-04-09T11:16:07.628Z,18.93
2023-04-09T11:18:37.998Z,18.93
2023-04-09T11:21:10.682Z,18.83
2023-04-09T11:23:40.634Z,18.97
2023-04-09T11:26:12.557Z,19.29
2023-04-09T11:28:46.178Z,19.64
2023-04-09T11:31:16.869Z,19.79
2023-04-09T11:33:49.539Z,19.85
2023-04-09T11:36:22.009Z,20.04
2023-04-09T11:38:52.459Z,20.26
2023-04-09T11:41:22.562Z,20.31
2023-04-09T11:43:55.090Z,20.11
2023-04-09T11:46:26.312Z,19.90
2023-04-09T11:48:57.170Z,19.79
2023-04-09T11:51:31.395Z,19.81
2023-04-09T11:54:05.215Z,20.01
2023-04-09T11:56:36.398Z,20.02
2023-04-09T11:59:06.865Z,20.02
2023-04-09T12:01:37.195Z,20.14
2023-04-09T12:04:08.468Z,20.19
2023-04-09T12:06:43.801Z,20.20
2023-04-09T12:09:14.389Z,20.21
2023-04-09T12:11:47.387Z,20.11
2023-04-09T12:14:19.151Z,20.17
2023-04-09T12:16:49.030Z,20.35
2023-04-09T12:19:20.401Z,20.39
2023-04-09T12:21:55.907Z,20.22
2023-04-09T12:24:29.160Z,20.16
2023-04-09T12:26:59.412Z,20.10
2023-04-09T12:29:30.118Z,20.15
2023-04-09T12:32:00.452Z,20.07
2023-04-09T12:34:30.734Z,20.03
2023-04-09T12:37:03.188Z,20.14
2023-04-09T12:39:34.413Z,20.11
2023-04-09T12:42:04.632Z,20.09
2023-04-09T12:44:34.431Z,20.16
2023-04-09T12:47:04.518Z,20.26
2023-04-09T12:49:34.229Z,20.43
2023-04-09T12:52:07.302Z,20.29
2023-04-09T12:54:37.176Z,19.95
2023-04-09T12:57:07.301Z,19.78
2023-04-09T12:59:37.155Z,19.66
2023-04-09T13:02:08.166Z,19.94
2023-04-09T13:04:38.294Z,20.24
2023-04-09T13:07:12.226Z,20.54
2023-04-09T13:09:42.015Z,20.65
2023-04-09T13:12:12.019Z,20.61
2023-04-09T13:14:42.773Z,20.56
2023-04-09T13:17:12.744Z,20.30
2023-04-09T13:19:43.000Z,20.45
2023-04-09T13:22:15.719Z,20.50
2023-04-09T13:24:46.171Z,20.50
2023-04-09T13:27:17.675Z,20.65
2023-04-09T13:29:47.530Z,20.73
2023-04-09T13:32:18.518Z,20.63
2023-04-09T13:34:48.292Z,20.26
2023-04-09T13:37:20.770Z,20.06
2023-04-09T13:39:50.650Z,19.95
2023-04-09T13:42:20.555Z,19.89
2023-04-09T13:44:50.427Z,19.86
2023-04-09T13:47:21.449Z,19.88
2023-04-09T13:49:51.699Z,19.93
2023-04-09T13:52:24.658Z,19.85
2023-04-09T13:54:56.414Z,19.80
2023-04-09T13:57:26.310Z,19.76
2023-04-09T13:59:56.288Z,19.74
2023-04-09T14:02:26.503Z,19.67
2023-04-09T14:04:57.168Z,19.66
2023-04-09T14:07:29.613Z,19.82
2023-04-09T14:09:59.545Z,19.94
2023-04-09T14:12:29.455Z,20.03
2023-04-09T14:14:59.350Z,20.16
2023-04-09T14:17:29.719Z,20.04
2023-04-09T14:20:00.321Z,19.88
2023-04-09T14:22:33.305Z,19.64
2023-04-09T14:25:03.163Z,19.52
2023-04-09T14:27:33.413Z,19.50
2023-04-09T14:30:03.918Z,19.65
2023-04-09T14:32:33.901Z,19.78
2023-04-09T14:35:06.661Z,20.01
2023-04-09T14:37:41.079Z,20.03
2023-04-09T14:40:12.036Z,20.05
2023-04-09T14:42:42.231Z,20.08
2023-04-09T14:45:13.318Z,20.10
2023-04-09T14:47:43.119Z,20.03
2023-04-09T14:50:13.932Z,20.23
2023-04-09T14:52:48.384Z,20.35
2023-04-09T14:55:18.719Z,20.39
2023-04-09T14:57:48.605Z,20.27
2023-04-09T15:00:19.187Z,20.12
2023-04-09T15:02:49.206Z,20.11
2023-04-09T15:05:19.226Z,19.99
2023-04-09T15:07:51.948Z,19.95
2023-04-09T15:10:22.339Z,20.00
2023-04-09T15:12:52.200Z,19.80
2023-04-09T15:15:22.118Z,19.74
2023-04-09T15:17:52.383Z,19.66
2023-04-09T15:20:22.314Z,19.63
2023-04-09T15:22:54.630Z,19.46
2023-04-09T15:25:24.762Z,19.49
2023-04-09T15:27:55.730Z,19.57
2023-04-09T15:30:26.706Z,19.72
2023-04-09T15:32:56.696Z,19.71
2023-04-09T15:35:29.575Z,19.72
2023-04-09T15:38:02.036Z,19.77
2023-04-09T15:40:32.267Z,19.78
2023-04-09T15:43:02.265Z,19.79
2023-04-09T15:45:32.154Z,19.64
2023-04-09T15:48:01.994Z,19.66
2023-04-09T15:50:32.084Z,19.61
2023-04-09T15:53:04.534Z,19.67
2023-04-09T15:55:34.993Z,19.63
2023-04-09T15:58:04.770Z,19.67
2023-04-09T16:00:34.706Z,19.72
2023-04-09T16:03:07.674Z,19.73
2023-04-09T16:05:37.489Z,19.74
2023-04-09T16:08:10.320Z,19.63
2023-04-09T16:10:40.374Z,19.62
2023-04-09T16:13:11.724Z,19.64
2023-04-09T16:15:42.041Z,19.67
2023-04-09T16:18:12.612Z,19.71
2023-04-09T16:20:42.466Z,19.64
2023-04-09T16:23:14.908Z,19.47
2023-04-09T16:25:44.895Z,19.42
2023-04-09T16:28:14.752Z,19.43
2023-04-09T16:30:44.659Z,19.33
2023-04-09T16:33:15.518Z,19.34
2023-04-09T16:35:45.606Z,19.26
2023-04-09T16:38:17.974Z,19.22
2023-04-09T16:40:48.015Z,19.22
2023-04-09T16:43:17.859Z,19.30
2023-04-09T16:45:47.687Z,19.35
2023-04-09T16:48:17.565Z,19.34
2023-04-09T16:50:47.423Z,19.18
2023-04-09T16:53:19.918Z,19.10
2023-04-09T16:55:50.197Z,18.97
2023-04-09T16:58:20.135Z,18.86
2023-04-09T17:00:51.863Z,18.86
2023-04-09T17:03:22.622Z,18.79
2023-04-09T17:05:52.555Z,18.58
2023-04-09T17:08:25.386Z,18.54
2023-04-09T17:11:02.251Z,18.48
2023-04-09T17:13:33.101Z,18.43
2023-04-09T17:16:02.965Z,18.35
2023-04-09T17:18:33.030Z,18.26
2023-04-09T17:21:02.917Z,18.23
2023-04-09T17:23:36.886Z,18.18
2023-04-09T17:26:07.060Z,18.15
2023-04-09T17:28:36.947Z,18.07
2023-04-09T17:31:07.084Z,17.99
2023-04-09T17:33:37.061Z,17.83
2023-04-09T17:36:07.295Z,17.75
2023-04-09T17:38:39.895Z,17.66
2023-04-09T17:41:10.106Z,17.56
2023-04-09T17:43:40.007Z,17.43
2023-04-09T17:46:10.339Z,17.34
2023-04-09T17:48:40.405Z,17.25
2023-04-09T17:51:10.631Z,17.19
2023-04-09T17:53:43.090Z,17.09
2023-04-09T17:56:18.267Z,16.96
2023-04-09T17:58:48.252Z,16.93
2023-04-09T18:01:18.181Z,16.85
2023-04-09T18:03:48.777Z,16.76
2023-04-09T18:06:18.804Z,16.69
2023-04-09T18:08:52.703Z,16.67
2023-04-09T18:11:26.513Z,16.61
2023-04-09T18:13:56.611Z,16.61
2023-04-09T18:16:26.573Z,16.51
2023-04-09T18:18:56.550Z,16.45
2023-04-09T18:21:27.249Z,16.43
2023-04-09T18:23:59.918Z,16.38
2023-04-09T18:26:29.778Z,16.26
2023-04-09T18:29:01.033Z,16.17
2023-04-09T18:31:31.593Z,16.09
2023-04-09T18:34:01.535Z,15.99
2023-04-09T18:36:31.516Z,15.90
2023-04-09T18:39:05.108Z,15.83
2023-04-09T18:41:34.984Z,15.77
2023-04-09T18:44:04.829Z,15.72
2023-04-09T18:46:34.807Z,15.64
2023-04-09T18:49:04.815Z,15.58
2023-04-09T18:51:34.718Z,15.49
2023-04-09T18:54:07.360Z,15.44
2023-04-09T18:56:37.308Z,15.39
2023-04-09T18:59:07.194Z,15.33
2023-04-09T19:01:37.604Z,15.28
2023-04-09T19:04:07.763Z,15.23
2023-04-09T19:06:38.564Z,15.20
2023-04-09T19:09:11.034Z,15.16
2023-04-09T19:11:40.887Z,15.10
2023-04-09T19:14:10.694Z,15.02
2023-04-09T19:16:41.125Z,14.94
2023-04-09T19:19:10.919Z,14.89
2023-04-09T19:21:41.373Z,14.83
2023-04-09T19:24:13.789Z,14.79
2023-04-09T19:26:43.670Z,14.74
2023-04-09T19:29:13.562Z,14.66
2023-04-09T19:31:44.168Z,14.59
2023-04-09T19:34:15.035Z,14.53
2023-04-09T19:36:44.971Z,14.47
2023-04-09T19:39:17.777Z,14.41
2023-04-09T19:41:47.564Z,14.34
2023-04-09T19:44:17.455Z,14.28
2023-04-09T19:46:47.526Z,14.23
2023-04-09T19:49:17.827Z,14.21
2023-04-09T19:51:47.788Z,14.16
2023-04-09T19:54:20.511Z,14.10
2023-04-09T19:56:50.385Z,14.04
2023-04-09T19:59:20.362Z,13.98
2023-04-09T20:01:51.095Z,13.96
2023-04-09T20:04:24.731Z,13.94
2023-04-09T20:06:55.473Z,13.89
2023-04-09T20:09:29.327Z,13.85
2023-04-09T20:12:04.492Z,13.82
2023-04-09T20:14:34.644Z,13.75
2023-04-09T20:17:04.768Z,13.69
2023-04-09T20:19:34.779Z,13.65
2023-04-09T20:22:04.920Z,13.61
2023-04-09T20:24:38.566Z,13.55
2023-04-09T20:27:08.437Z,13.49
2023-04-09T20:29:38.544Z,13.46
2023-04-09T20:32:08.904Z,13.41
2023-04-09T20:34:38.833Z,13.36
2023-04-09T20:37:08.740Z,13.30
2023-04-09T20:39:41.960Z,13.22
2023-04-09T20:42:11.811Z,13.18
2023-04-09T20:44:42.078Z,13.11
2023-04-09T20:47:12.104Z,13.08
2023-04-09T20:49:43.222Z,13.01
2023-04-09T20:52:13.200Z,12.98
2023-04-09T20:54:46.092Z,12.90
2023-04-09T20:57:16.027Z,12.82
2023-04-09T20:59:45.833Z,12.73
2023-04-09T21:02:15.894Z,12.67
2023-04-09T21:04:45.849Z,12.59
2023-04-09T21:07:15.839Z,12.54
2023-04-09T21:09:48.451Z,12.49
2023-04-09T21:12:18.446Z,12.45
2023-04-09T21:14:48.620Z,12.37
2023-04-09T21:17:18.526Z,12.31
2023-04-09T21:19:49.493Z,12.27
2023-04-09T21:22:19.361Z,12.21
2023-04-09T21:24:54.415Z,12.15
2023-04-09T21:27:24.253Z,12.11
2023-04-09T21:29:54.766Z,12.03
2023-04-09T21:32:25.390Z,11.99
2023-04-09T21:34:55.606Z,11.94
2023-04-09T21:37:25.538Z,11.89
2023-04-09T21:39:57.961Z,11.87
2023-04-09T21:42:27.793Z,11.80
2023-04-09T21:44:57.736Z,11.76
2023-04-09T21:47:28.241Z,11.71
2023-04-09T21:49:58.942Z,11.67
2023-04-09T21:52:28.968Z,11.62
2023-04-09T21:55:01.368Z,11.58
2023-04-09T21:57:31.178Z,11.53
2023-04-09T22:00:02.109Z,11.48
2023-04-09T22:02:32.112Z,11.43
2023-04-09T22:05:02.863Z,11.38
2023-04-09T22:07:32.846Z,11.35
2023-04-09T22:10:05.522Z,11.31
2023-04-09T22:12:37.355Z,11.28
2023-04-09T22:15:08.807Z,11.24
2023-04-09T22:17:38.923Z,11.19
2023-04-09T22:20:10.413Z,11.15
2023-04-09T22:22:42.291Z,11.13
2023-04-09T22:25:15.949Z,11.11
2023-04-09T22:27:46.060Z,11.07
2023-04-09T22:30:16.057Z,11.02
2023-04-09T22:32:46.043Z,10.99
2023-04-09T22:35:18.345Z,10.94
2023-04-09T22:37:48.865Z,10.91
2023-04-09T22:40:21.675Z,10.89
2023-04-09T22:42:51.688Z,10.83
2023-04-09T22:45:22.195Z,10.78
2023-04-09T22:47:52.062Z,10.68
2023-04-09T22:50:22.637Z,10.62
2023-04-09T22:52:54.612Z,10.59
2023-04-09T22:55:27.596Z,10.56
2023-04-09T22:57:58.348Z,10.54
2023-04-09T23:00:28.437Z,10.53
2023-04-09T23:02:58.604Z,10.50
2023-04-09T23:05:28.663Z,10.47
2023-04-09T23:07:58.455Z,10.43
2023-04-09T23:10:31.057Z,10.38
2023-04-09T23:13:00.860Z,10.35
2023-04-09T23:15:31.344Z,10.32
2023-04-09T23:18:01.337Z,10.31
2023-04-09T23:20:34.115Z,10.30
2023-04-09T23:23:04.009Z,10.27
2023-04-09T23:25:36.802Z,10.23
2023-04-09T23:28:06.678Z,10.20
2023-04-09T23:30:36.913Z,10.17
2023-04-09T23:33:07.214Z,10.14
2023-04-09T23:35:37.083Z,10.11
2023-04-09T23:38:07.036Z,10.07
2023-04-09T23:40:39.604Z,10.05
2023-04-09T23:43:09.409Z,10.02
2023-04-09T23:45:39.252Z,9.99
2023-04-09T23:48:10.391Z,9.97
2023-04-09T23:50:41.315Z,9.96
2023-04-09T23:53:11.725Z,9.93
2023-04-09T23:55:45.512Z,9.89
2023-04-09T23:58:15.391Z,9.88
